Pinehurst, Washington
Current Conditions -  °F | °C
As of 7:53 AM on Sunday 25 Jan 2015 (Local Time) from KPAE Reporting Station
Scattered Clouds Scattered Clouds  
Wind Chill: 52°   Ceiling: Unl
Heat Index: 52°   Visibility: 10mi
Dew Point: 49°   Wind: 3mph
Humidity: 89%   Direction: NA
Pressure: 30.19"   Gusts: NA
Location:  47.9451°N, 122.226°W
Report Text: KPAE 251553Z VRB03KT 10SM SCT015 11/09 A3019 RMK AO2 SLP224 T01110094
Loading
Personal Weather Stations






























Interactive Weather Map New forecast layout! Learn more

10-Day Weather Forecast

Advertisements
Track Severe Weather on mobile